createdAt,value
2022-11-19T00:02:01.768Z,100113.00
2022-11-19T00:04:29.803Z,100116.00
2022-11-19T00:06:57.838Z,100118.00
2022-11-19T00:09:25.637Z,100116.00
2022-11-19T00:12:12.276Z,100124.00
2022-11-19T00:14:40.635Z,100118.00
2022-11-19T00:17:08.672Z,100111.00
2022-11-19T00:19:36.471Z,100115.00
2022-11-19T00:22:04.320Z,100120.00
2022-11-19T00:24:32.417Z,100118.00
2022-11-19T00:27:00.433Z,100122.00
2022-11-19T00:29:28.089Z,100124.00
2022-11-19T00:31:56.060Z,100127.00
2022-11-19T00:34:23.913Z,100119.00
2022-11-19T00:36:51.826Z,100118.00
2022-11-19T00:39:21.434Z,100121.00
2022-11-19T00:41:49.767Z,100114.00
2022-11-19T00:44:17.801Z,100120.00
2022-11-19T00:46:45.497Z,100121.00
2022-11-19T00:49:13.392Z,100124.00
2022-11-19T00:51:41.287Z,100120.00
2022-11-19T00:54:09.177Z,100126.00
2022-11-19T00:56:37.055Z,100126.00
2022-11-19T00:59:05.019Z,100132.00
2022-11-19T01:01:33.106Z,100142.00
2022-11-19T01:04:02.200Z,100145.00
2022-11-19T01:06:30.095Z,100134.00
2022-11-19T01:08:58.364Z,100137.00
2022-11-19T01:11:31.492Z,100142.00
2022-11-19T01:14:00.210Z,100156.00
2022-11-19T01:16:36.449Z,100156.00
2022-11-19T01:19:06.271Z,100145.00
2022-11-19T01:21:35.325Z,100152.00
2022-11-19T01:24:04.020Z,100159.00
2022-11-19T01:26:32.176Z,100150.00
2022-11-19T01:28:59.960Z,100150.00
2022-11-19T01:31:29.561Z,100146.00
2022-11-19T01:33:58.655Z,100161.00
2022-11-19T01:36:29.998Z,100156.00
2022-11-19T01:38:58.160Z,100175.00
2022-11-19T01:41:31.572Z,100161.00
2022-11-19T01:44:05.118Z,100165.00
2022-11-19T01:46:35.694Z,100171.00
2022-11-19T01:49:18.783Z,100176.00
2022-11-19T01:52:03.837Z,100175.00
2022-11-19T01:54:45.038Z,100165.00
2022-11-19T01:57:15.660Z,100173.00
2022-11-19T01:59:44.960Z,100165.00
2022-11-19T02:02:13.090Z,100169.00
2022-11-19T02:04:41.192Z,100166.00
2022-11-19T02:07:11.004Z,100167.00
2022-11-19T02:09:39.375Z,100168.00
2022-11-19T02:12:31.840Z,100166.00
2022-11-19T02:15:21.467Z,100161.00
2022-11-19T02:18:19.268Z,100162.00
2022-11-19T02:21:15.937Z,100172.00
2022-11-19T02:23:46.372Z,100168.00
2022-11-19T02:26:42.604Z,100172.00
2022-11-19T02:29:49.073Z,100163.00
2022-11-19T02:32:23.343Z,100175.00
2022-11-19T02:35:14.949Z,100188.00
2022-11-19T02:38:02.751Z,100175.00
2022-11-19T02:40:43.593Z,100186.00
2022-11-19T02:43:18.412Z,100192.00
2022-11-19T02:45:52.265Z,100188.00
2022-11-19T02:48:44.140Z,100191.00
2022-11-19T02:51:12.880Z,100186.00
2022-11-19T02:53:40.492Z,100186.00
2022-11-19T02:56:45.963Z,100195.00
2022-11-19T02:59:33.606Z,100203.00
2022-11-19T03:02:21.374Z,100197.00
2022-11-19T03:04:53.137Z,100203.00
2022-11-19T03:07:22.216Z,100203.00
2022-11-19T03:09:55.485Z,100205.00
2022-11-19T03:12:41.677Z,100193.00
2022-11-19T03:15:38.394Z,100201.00
2022-11-19T03:18:26.570Z,100214.00
2022-11-19T03:21:01.341Z,100207.00
2022-11-19T03:23:54.748Z,100205.00
2022-11-19T03:26:33.569Z,100215.00
2022-11-19T03:29:04.034Z,100210.00
2022-11-19T03:31:32.975Z,100214.00
2022-11-19T03:34:03.835Z,100214.00
2022-11-19T03:36:39.433Z,100218.00
2022-11-19T03:39:11.028Z,100219.00
2022-11-19T03:41:42.082Z,100224.00
2022-11-19T03:44:30.103Z,100224.00
2022-11-19T03:47:05.724Z,100218.00
2022-11-19T03:49:37.672Z,100218.00
2022-11-19T03:52:07.507Z,100219.00
2022-11-19T03:54:35.459Z,100227.00
2022-11-19T03:57:04.561Z,100228.00
2022-11-19T03:59:32.505Z,100237.00
2022-11-19T04:02:04.138Z,100239.00
2022-11-19T04:04:37.748Z,100249.00
2022-11-19T04:07:11.043Z,100251.00
2022-11-19T04:09:40.659Z,100254.00
2022-11-19T04:12:14.368Z,100251.00
2022-11-19T04:14:42.200Z,100246.00
2022-11-19T04:17:10.068Z,100252.00
2022-11-19T04:19:37.873Z,100256.00
2022-11-19T04:22:05.749Z,100251.00
2022-11-19T04:24:33.507Z,100256.00
2022-11-19T04:27:01.536Z,100256.00
2022-11-19T04:29:30.549Z,100253.00
2022-11-19T04:31:59.651Z,100260.00
2022-11-19T04:34:27.318Z,100266.00
2022-11-19T04:36:55.226Z,100257.00
2022-11-19T04:39:23.436Z,100253.00
2022-11-19T04:41:51.393Z,100252.00
2022-11-19T04:44:19.371Z,100258.00
2022-11-19T04:46:47.368Z,100246.00
2022-11-19T04:49:15.443Z,100247.00
2022-11-19T04:51:43.354Z,100254.00
2022-11-19T04:54:11.599Z,100247.00
2022-11-19T04:56:39.514Z,100247.00
2022-11-19T04:59:07.545Z,100241.00
2022-11-19T05:01:35.561Z,100242.00
2022-11-19T05:04:03.533Z,100239.00
2022-11-19T05:06:31.391Z,100242.00
2022-11-19T05:08:59.421Z,100239.00
2022-11-19T05:11:27.394Z,100242.00
2022-11-19T05:13:58.140Z,100240.00
2022-11-19T05:16:25.940Z,100251.00
2022-11-19T05:18:53.956Z,100247.00
2022-11-19T05:21:21.854Z,100245.00
2022-11-19T05:23:49.826Z,100246.00
2022-11-19T05:26:17.700Z,100244.00
2022-11-19T05:28:46.258Z,100240.00
2022-11-19T05:31:13.990Z,100233.00
2022-11-19T05:33:41.743Z,100229.00
2022-11-19T05:36:09.909Z,100224.00
2022-11-19T05:38:37.812Z,100233.00
2022-11-19T05:41:05.791Z,100239.00
2022-11-19T05:43:33.630Z,100242.00
2022-11-19T05:46:02.679Z,100242.00
2022-11-19T05:48:31.286Z,100252.00
2022-11-19T05:50:59.139Z,100248.00
2022-11-19T05:53:27.605Z,100262.00
2022-11-19T05:55:55.455Z,100263.00
2022-11-19T05:58:23.265Z,100264.00
2022-11-19T06:00:56.292Z,100271.00
2022-11-19T06:03:24.308Z,100269.00
2022-11-19T06:05:52.318Z,100272.00
2022-11-19T06:08:20.274Z,100269.00
2022-11-19T06:10:48.115Z,100274.00
2022-11-19T06:13:19.122Z,100271.00
2022-11-19T06:15:47.218Z,100275.00
2022-11-19T06:18:15.154Z,100274.00
2022-11-19T06:20:43.272Z,100267.00
2022-11-19T06:23:11.160Z,100268.00
2022-11-19T06:25:39.226Z,100278.00
2022-11-19T06:28:07.813Z,100277.00
2022-11-19T06:30:35.907Z,100280.00
2022-11-19T06:33:03.781Z,100292.00
2022-11-19T06:35:31.558Z,100292.00
2022-11-19T06:37:59.573Z,100289.00
2022-11-19T06:40:27.530Z,100298.00
2022-11-19T06:42:55.496Z,100295.00
2022-11-19T06:45:23.394Z,100308.00
2022-11-19T06:47:51.442Z,100304.00
2022-11-19T06:50:19.277Z,100309.00
2022-11-19T06:52:47.233Z,100310.00
2022-11-19T06:55:15.365Z,100311.00
2022-11-19T06:57:43.333Z,100303.00
2022-11-19T07:00:12.378Z,100310.00
2022-11-19T07:02:41.145Z,100308.00
2022-11-19T07:05:09.162Z,100310.00
2022-11-19T07:07:37.008Z,100310.00
2022-11-19T07:10:05.278Z,100313.00
2022-11-19T07:12:33.302Z,100312.00
2022-11-19T07:15:04.241Z,100303.00
2022-11-19T07:17:33.048Z,100321.00
2022-11-19T07:20:01.006Z,100313.00
2022-11-19T07:22:29.170Z,100317.00
2022-11-19T07:24:57.391Z,100321.00
2022-11-19T07:27:25.194Z,100330.00
2022-11-19T07:29:53.260Z,100316.00
2022-11-19T07:32:21.378Z,100320.00
2022-11-19T07:34:49.292Z,100330.00
2022-11-19T07:37:16.994Z,100316.00
2022-11-19T07:39:47.209Z,100326.00
2022-11-19T07:42:33.645Z,100330.00
2022-11-19T07:45:09.840Z,100324.00
2022-11-19T07:47:37.774Z,100316.00
2022-11-19T07:50:06.113Z,100334.00
2022-11-19T07:52:34.079Z,100335.00
2022-11-19T07:55:02.021Z,100330.00
2022-11-19T07:57:30.489Z,100336.00
2022-11-19T07:59:58.629Z,100323.00
2022-11-19T08:02:26.597Z,100338.00
2022-11-19T08:04:54.699Z,100335.00
2022-11-19T08:07:22.871Z,100335.00
2022-11-19T08:09:51.247Z,100338.00
2022-11-19T08:12:22.517Z,100339.00
2022-11-19T08:14:50.443Z,100339.00
2022-11-19T08:17:36.618Z,100337.00
2022-11-19T08:20:04.783Z,100336.00
2022-11-19T08:22:32.868Z,100325.00
2022-11-19T08:25:00.863Z,100326.00
2022-11-19T08:27:28.775Z,100330.00
2022-11-19T08:29:56.569Z,100338.00
2022-11-19T08:32:24.656Z,100326.00
2022-11-19T08:34:52.727Z,100331.00
2022-11-19T08:37:20.621Z,100331.00
2022-11-19T08:39:48.658Z,100325.00
2022-11-19T08:42:35.313Z,100315.00
2022-11-19T08:45:03.254Z,100316.00
2022-11-19T08:47:31.221Z,100320.00
2022-11-19T08:49:59.016Z,100322.00
2022-11-19T08:52:26.805Z,100334.00
2022-11-19T08:54:54.889Z,100334.00
2022-11-19T08:57:23.049Z,100334.00
2022-11-19T08:59:52.358Z,100339.00
2022-11-19T09:02:20.282Z,100335.00
2022-11-19T09:04:48.322Z,100335.00
2022-11-19T09:07:16.325Z,100335.00
2022-11-19T09:09:44.340Z,100336.00
2022-11-19T09:12:12.390Z,100347.00
2022-11-19T09:14:41.264Z,100340.00
2022-11-19T09:17:09.044Z,100349.00
2022-11-19T09:19:36.727Z,100352.00
2022-11-19T09:22:04.610Z,100350.00
2022-11-19T09:24:32.438Z,100356.00
2022-11-19T09:27:02.513Z,100353.00
2022-11-19T09:29:30.560Z,100355.00
2022-11-19T09:31:59.012Z,100357.00
2022-11-19T09:34:26.681Z,100358.00
2022-11-19T09:36:54.576Z,100364.00
2022-11-19T09:39:22.345Z,100370.00
2022-11-19T09:42:02.649Z,100365.00
2022-11-19T09:44:44.960Z,100367.00
2022-11-19T09:47:18.790Z,100363.00
2022-11-19T09:49:52.014Z,100368.00
2022-11-19T09:52:21.891Z,100364.00
2022-11-19T09:54:52.624Z,100368.00
2022-11-19T09:58:05.318Z,100360.00
2022-11-19T10:00:33.974Z,100361.00
2022-11-19T10:03:08.530Z,100364.00
2022-11-19T10:05:51.823Z,100361.00
2022-11-19T10:08:47.399Z,100368.00
2022-11-19T10:11:45.672Z,100362.00
2022-11-19T10:14:36.267Z,100365.00
2022-11-19T10:17:16.278Z,100366.00
2022-11-19T10:20:09.003Z,100373.00
2022-11-19T10:22:41.321Z,100362.00
2022-11-19T10:25:21.955Z,100363.00
2022-11-19T10:28:21.014Z,100364.00
2022-11-19T10:30:55.500Z,100366.00
2022-11-19T10:33:35.142Z,100360.00
2022-11-19T10:36:08.554Z,100364.00
2022-11-19T10:38:39.249Z,100362.00
2022-11-19T10:41:11.807Z,100364.00
2022-11-19T10:43:50.934Z,100365.00
2022-11-19T10:46:22.602Z,100362.00
2022-11-19T10:48:56.978Z,100370.00
2022-11-19T10:51:24.803Z,100359.00
2022-11-19T10:53:53.707Z,100360.00
2022-11-19T10:56:43.211Z,100356.00
2022-11-19T10:59:18.099Z,100352.00
2022-11-19T11:01:49.398Z,100358.00
2022-11-19T11:04:23.909Z,100360.00
2022-11-19T11:06:57.831Z,100361.00
2022-11-19T11:09:41.953Z,100358.00
2022-11-19T11:12:37.450Z,100353.00
2022-11-19T11:15:23.084Z,100360.00
2022-11-19T11:18:05.073Z,100368.00
2022-11-19T11:20:33.807Z,100361.00
2022-11-19T11:23:15.294Z,100351.00
2022-11-19T11:25:53.209Z,100351.00
2022-11-19T11:28:22.675Z,100342.00
2022-11-19T11:31:01.894Z,100341.00
2022-11-19T11:33:42.094Z,100341.00
2022-11-19T11:36:16.293Z,100345.00
2022-11-19T11:38:49.830Z,100335.00
2022-11-19T11:44:15.654Z,100338.00
2022-11-19T11:46:48.063Z,100332.00
2022-11-19T11:49:41.980Z,100323.00
2022-11-19T11:52:09.899Z,100331.00
2022-11-19T11:54:39.812Z,100322.00
2022-11-19T11:57:21.935Z,100334.00
2022-11-19T11:59:50.015Z,100325.00
2022-11-19T12:02:22.879Z,100321.00
2022-11-19T12:04:52.502Z,100325.00
2022-11-19T12:07:39.449Z,100323.00
2022-11-19T12:10:30.605Z,100315.00
2022-11-19T12:13:04.167Z,100319.00
2022-11-19T12:15:56.352Z,100322.00
2022-11-19T12:18:39.173Z,100316.00
2022-11-19T12:21:12.185Z,100317.00
2022-11-19T12:23:49.048Z,100318.00
2022-11-19T12:26:47.747Z,100316.00
2022-11-19T12:29:33.979Z,100314.00
2022-11-19T12:32:22.807Z,100315.00
2022-11-19T12:35:04.857Z,100315.00
2022-11-19T12:37:50.665Z,100315.00
2022-11-19T12:40:30.018Z,100309.00
2022-11-19T12:43:35.409Z,100305.00
2022-11-19T12:46:20.543Z,100301.00
2022-11-19T12:49:00.730Z,100304.00
2022-11-19T12:51:44.556Z,100301.00
2022-11-19T12:54:34.532Z,100303.00
2022-11-19T12:57:20.836Z,100297.00
2022-11-19T12:59:54.708Z,100304.00
2022-11-19T13:02:30.457Z,100297.00
2022-11-19T13:05:33.651Z,100296.00
2022-11-19T13:08:27.810Z,100299.00
2022-11-19T13:11:06.063Z,100300.00
2022-11-19T13:13:37.811Z,100306.00
2022-11-19T13:16:12.635Z,100304.00
2022-11-19T13:18:43.655Z,100296.00
2022-11-19T13:21:23.584Z,100295.00
2022-11-19T13:23:52.195Z,100300.00
2022-11-19T13:26:32.350Z,100298.00
2022-11-19T13:29:23.448Z,100291.00
2022-11-19T13:31:57.789Z,100295.00
2022-11-19T13:34:33.213Z,100301.00
2022-11-19T13:37:06.930Z,100289.00
2022-11-19T13:39:47.219Z,100291.00
2022-11-19T13:42:35.238Z,100289.00
2022-11-19T13:45:03.082Z,100287.00
2022-11-19T13:47:47.522Z,100291.00
2022-11-19T13:50:34.864Z,100300.00
2022-11-19T13:53:41.232Z,100301.00
2022-11-19T13:56:14.231Z,100292.00
2022-11-19T13:58:47.675Z,100285.00
2022-11-19T14:01:34.263Z,100286.00
2022-11-19T14:04:11.603Z,100280.00
2022-11-19T14:06:48.483Z,100273.00
2022-11-19T14:09:44.214Z,100267.00
2022-11-19T14:12:33.915Z,100280.00
2022-11-19T14:15:53.054Z,100269.00
2022-11-19T14:18:49.001Z,100265.00
2022-11-19T14:21:44.128Z,100264.00
2022-11-19T14:24:45.382Z,100264.00
2022-11-19T14:27:29.808Z,100267.00
2022-11-19T14:30:03.707Z,100265.00
2022-11-19T14:32:34.867Z,100260.00
2022-11-19T14:35:03.260Z,100254.00
2022-11-19T14:37:43.454Z,100254.00
2022-11-19T14:40:21.645Z,100259.00
2022-11-19T14:43:20.332Z,100250.00
2022-11-19T14:46:03.565Z,100245.00
2022-11-19T14:48:39.368Z,100249.00
2022-11-19T14:51:17.247Z,100249.00
2022-11-19T14:54:13.858Z,100242.00
2022-11-19T14:56:42.808Z,100240.00
2022-11-19T14:59:11.183Z,100247.00
2022-11-19T15:02:00.700Z,100231.00
2022-11-19T15:04:59.575Z,100225.00
2022-11-19T15:07:39.657Z,100234.00
2022-11-19T15:10:27.168Z,100235.00
2022-11-19T15:13:18.964Z,100236.00
2022-11-19T15:15:47.661Z,100236.00
2022-11-19T15:18:21.592Z,100231.00
2022-11-19T15:21:05.443Z,100227.00
2022-11-19T15:23:57.220Z,100228.00
2022-11-19T15:26:55.740Z,100234.00
2022-11-19T15:29:41.653Z,100227.00
2022-11-19T15:32:30.875Z,100225.00
2022-11-19T15:35:10.731Z,100219.00
2022-11-19T15:37:51.561Z,100212.00
2022-11-19T15:40:29.347Z,100209.00
2022-11-19T15:43:42.088Z,100218.00
2022-11-19T15:46:16.372Z,100213.00
2022-11-19T15:49:15.962Z,100212.00
2022-11-19T15:52:16.305Z,100204.00
2022-11-19T15:54:45.707Z,100205.00
2022-11-19T15:57:24.068Z,100211.00
2022-11-19T16:00:01.826Z,100201.00
2022-11-19T16:02:44.120Z,100207.00
2022-11-19T16:05:26.039Z,100203.00
2022-11-19T16:07:54.685Z,100199.00
2022-11-19T16:11:08.340Z,100203.00
2022-11-19T16:13:54.910Z,100194.00
2022-11-19T16:16:47.148Z,100193.00
2022-11-19T16:19:16.567Z,100197.00
2022-11-19T16:21:47.265Z,100189.00
2022-11-19T16:24:35.602Z,100195.00
2022-11-19T16:27:04.695Z,100191.00
2022-11-19T16:29:36.491Z,100186.00
2022-11-19T16:32:05.802Z,100187.00
2022-11-19T16:34:35.514Z,100183.00
2022-11-19T16:37:03.665Z,100179.00
2022-11-19T16:39:33.027Z,100187.00
2022-11-19T16:42:17.359Z,100179.00
2022-11-19T16:44:54.877Z,100185.00
2022-11-19T16:47:27.494Z,100177.00
2022-11-19T16:50:02.047Z,100172.00
2022-11-19T16:52:36.827Z,100172.00
2022-11-19T16:55:24.900Z,100174.00
2022-11-19T16:58:01.010Z,100180.00
2022-11-19T17:00:33.948Z,100172.00
2022-11-19T17:03:03.763Z,100174.00
2022-11-19T17:05:31.587Z,100174.00
2022-11-19T17:08:30.784Z,100181.00
2022-11-19T17:11:37.888Z,100175.00
2022-11-19T17:14:20.671Z,100186.00
2022-11-19T17:16:51.571Z,100178.00
2022-11-19T17:19:26.868Z,100175.00
2022-11-19T17:22:21.980Z,100170.00
2022-11-19T17:24:50.590Z,100174.00
2022-11-19T17:27:34.703Z,100174.00
2022-11-19T17:30:28.387Z,100170.00
2022-11-19T17:33:01.246Z,100171.00
2022-11-19T17:35:42.005Z,100176.00
2022-11-19T17:38:19.719Z,100178.00
2022-11-19T17:40:50.142Z,100186.00
2022-11-19T17:43:42.075Z,100182.00
2022-11-19T17:46:10.488Z,100176.00
2022-11-19T17:48:41.880Z,100178.00
2022-11-19T17:51:14.285Z,100178.00
2022-11-19T17:53:42.201Z,100178.00
2022-11-19T17:56:29.991Z,100184.00
2022-11-19T17:58:59.857Z,100187.00
2022-11-19T18:01:28.180Z,100186.00
2022-11-19T18:03:56.315Z,100182.00
2022-11-19T18:06:24.345Z,100188.00
2022-11-19T18:08:52.454Z,100180.00
2022-11-19T18:11:23.159Z,100171.00
2022-11-19T18:13:52.608Z,100178.00
2022-11-19T18:16:23.955Z,100180.00
2022-11-19T18:18:52.477Z,100175.00
2022-11-19T18:21:21.961Z,100182.00
2022-11-19T18:23:51.390Z,100182.00
2022-11-19T18:26:22.564Z,100176.00
2022-11-19T18:28:50.693Z,100180.00
2022-11-19T18:31:22.737Z,100172.00
2022-11-19T18:33:51.517Z,100178.00
2022-11-19T18:36:19.729Z,100177.00
2022-11-19T18:38:48.221Z,100172.00
2022-11-19T18:41:19.123Z,100175.00
2022-11-19T18:44:05.861Z,100177.00
2022-11-19T18:46:33.896Z,100170.00
2022-11-19T18:49:01.711Z,100166.00
2022-11-19T18:51:31.849Z,100165.00
2022-11-19T18:54:00.279Z,100168.00
2022-11-19T18:56:28.129Z,100174.00
2022-11-19T18:59:00.316Z,100177.00
2022-11-19T19:01:31.516Z,100180.00
2022-11-19T19:04:00.110Z,100175.00
2022-11-19T19:06:29.993Z,100174.00
2022-11-19T19:08:57.755Z,100183.00
2022-11-19T19:11:43.991Z,100174.00
2022-11-19T19:14:11.850Z,100187.00
2022-11-19T19:16:39.789Z,100172.00
2022-11-19T19:19:07.706Z,100173.00
2022-11-19T19:21:35.484Z,100171.00
2022-11-19T19:24:05.514Z,100170.00
2022-11-19T19:26:33.602Z,100175.00
2022-11-19T19:29:01.612Z,100168.00
2022-11-19T19:31:29.780Z,100170.00
2022-11-19T19:33:57.746Z,100171.00
2022-11-19T19:36:25.786Z,100173.00
2022-11-19T19:38:53.946Z,100178.00
2022-11-19T19:41:24.116Z,100185.00
2022-11-19T19:43:53.136Z,100185.00
2022-11-19T19:46:23.627Z,100188.00
2022-11-19T19:48:53.080Z,100187.00
2022-11-19T19:51:22.653Z,100193.00
2022-11-19T19:53:52.364Z,100190.00
2022-11-19T19:56:28.993Z,100183.00
2022-11-19T19:58:57.764Z,100177.00
2022-11-19T20:01:33.500Z,100184.00
2022-11-19T20:04:03.542Z,100180.00
2022-11-19T20:06:32.166Z,100185.00
2022-11-19T20:09:03.205Z,100190.00
2022-11-19T20:11:35.046Z,100185.00
2022-11-19T20:14:02.978Z,100186.00
2022-11-19T20:16:32.451Z,100187.00
2022-11-19T20:19:01.187Z,100179.00
2022-11-19T20:21:36.512Z,100190.00
2022-11-19T20:24:11.798Z,100201.00
2022-11-19T20:26:41.092Z,100194.00
2022-11-19T20:29:12.562Z,100206.00
2022-11-19T20:31:41.181Z,100198.00
2022-11-19T20:34:09.848Z,100192.00
2022-11-19T20:36:37.686Z,100198.00
2022-11-19T20:39:06.811Z,100183.00
2022-11-19T20:41:53.092Z,100174.00
2022-11-19T20:44:21.522Z,100176.00
2022-11-19T20:46:57.466Z,100181.00
2022-11-19T20:49:27.941Z,100185.00
2022-11-19T20:51:56.428Z,100191.00
2022-11-19T20:54:25.027Z,100187.00
2022-11-19T20:56:54.402Z,100182.00
2022-11-19T20:59:23.094Z,100191.00
2022-11-19T21:01:51.595Z,100184.00
2022-11-19T21:04:23.876Z,100193.00
2022-11-19T21:06:51.770Z,100177.00
2022-11-19T21:09:20.310Z,100180.00
2022-11-19T21:11:48.777Z,100177.00
2022-11-19T21:14:16.694Z,100166.00
2022-11-19T21:16:44.724Z,100168.00
2022-11-19T21:19:13.593Z,100165.00
2022-11-19T21:21:41.704Z,100158.00
2022-11-19T21:24:09.745Z,100162.00
2022-11-19T21:26:37.564Z,100162.00
2022-11-19T21:29:05.458Z,100164.00
2022-11-19T21:31:49.880Z,100149.00
2022-11-19T21:34:20.786Z,100164.00
2022-11-19T21:36:49.091Z,100159.00
2022-11-19T21:39:18.062Z,100158.00
2022-11-19T21:41:46.042Z,100154.00
2022-11-19T21:44:18.315Z,100153.00
2022-11-19T21:46:50.757Z,100146.00
2022-11-19T21:49:19.023Z,100144.00
2022-11-19T21:51:47.379Z,100144.00
2022-11-19T21:54:15.224Z,100139.00
2022-11-19T21:56:43.153Z,100139.00
2022-11-19T21:59:14.021Z,100141.00
2022-11-19T22:01:41.814Z,100139.00
2022-11-19T22:04:15.644Z,100135.00
2022-11-19T22:06:46.187Z,100145.00
2022-11-19T22:09:14.034Z,100135.00
2022-11-19T22:11:41.884Z,100144.00
2022-11-19T22:14:10.903Z,100128.00
2022-11-19T22:16:40.406Z,100136.00
2022-11-19T22:19:08.218Z,100130.00
2022-11-19T22:21:36.377Z,100127.00
2022-11-19T22:24:04.725Z,100132.00
2022-11-19T22:26:32.856Z,100117.00
2022-11-19T22:29:00.657Z,100119.00
2022-11-19T22:31:28.621Z,100122.00
2022-11-19T22:33:56.520Z,100121.00
2022-11-19T22:36:24.952Z,100131.00
2022-11-19T22:38:52.834Z,100136.00
2022-11-19T22:41:22.207Z,100134.00
2022-11-19T22:43:50.092Z,100137.00
2022-11-19T22:46:19.216Z,100141.00
2022-11-19T22:48:47.171Z,100141.00
2022-11-19T22:51:18.721Z,100130.00
2022-11-19T22:53:47.147Z,100140.00
2022-11-19T22:56:17.745Z,100142.00
2022-11-19T22:58:46.102Z,100135.00
2022-11-19T23:01:20.008Z,100145.00
2022-11-19T23:03:48.250Z,100141.00
2022-11-19T23:06:16.570Z,100143.00
2022-11-19T23:08:45.130Z,100149.00
2022-11-19T23:11:14.840Z,100147.00
2022-11-19T23:13:44.214Z,100145.00
2022-11-19T23:16:15.750Z,100134.00
2022-11-19T23:18:51.695Z,100127.00
2022-11-19T23:21:24.507Z,100128.00
2022-11-19T23:23:52.696Z,100129.00
2022-11-19T23:26:22.806Z,100131.00
2022-11-19T23:28:51.445Z,100129.00
2022-11-19T23:31:24.742Z,100123.00
2022-11-19T23:33:58.578Z,100128.00
2022-11-19T23:36:29.805Z,100126.00
2022-11-19T23:38:59.188Z,100126.00
2022-11-19T23:41:27.716Z,100118.00
2022-11-19T23:43:56.421Z,100125.00
2022-11-19T23:46:29.696Z,100121.00
2022-11-19T23:48:58.644Z,100121.00
2022-11-19T23:51:29.532Z,100118.00
2022-11-19T23:53:57.811Z,100125.00
2022-11-19T23:56:27.300Z,100114.00
2022-11-19T23:58:55.303Z,100114.00
